sensor_id;sensor_type;location;lat;lon;timestamp;P1;durP1;ratioP1;P2;durP2;ratioP2
4726;SDS011;2377;51.734;8.950;2022-12-29T00:00:54;2.37;;;1.40;;
4726;SDS011;2377;51.734;8.950;2022-12-29T00:03:22;2.20;;;1.30;;
4726;SDS011;2377;51.734;8.950;2022-12-29T00:05:53;2.53;;;1.23;;
4726;SDS011;2377;51.734;8.950;2022-12-29T00:08:21;3.10;;;1.60;;
4726;SDS011;2377;51.734;8.950;2022-12-29T00:11:04;4.80;;;1.70;;
4726;SDS011;2377;51.734;8.950;2022-12-29T00:13:32;2.40;;;1.40;;
4726;SDS011;2377;51.734;8.950;2022-12-29T00:16:16;2.17;;;1.27;;
4726;SDS011;2377;51.734;8.950;2022-12-29T00:18:44;2.17;;;1.10;;
4726;SDS011;2377;51.734;8.950;2022-12-29T00:21:13;2.63;;;1.50;;
4726;SDS011;2377;51.734;8.950;2022-12-29T00:23:59;2.10;;;1.20;;
4726;SDS011;2377;51.734;8.950;2022-12-29T00:26:43;2.00;;;1.30;;
4726;SDS011;2377;51.734;8.950;2022-12-29T00:29:30;1.90;;;1.20;;
4726;SDS011;2377;51.734;8.950;2022-12-29T00:32:15;4.00;;;1.57;;
4726;SDS011;2377;51.734;8.950;2022-12-29T00:35:01;2.77;;;1.47;;
4726;SDS011;2377;51.734;8.950;2022-12-29T00:37:34;1.77;;;1.00;;
4726;SDS011;2377;51.734;8.950;2022-12-29T00:40:16;2.50;;;1.33;;
4726;SDS011;2377;51.734;8.950;2022-12-29T00:43:00;2.80;;;1.30;;
4726;SDS011;2377;51.734;8.950;2022-12-29T00:45:45;2.00;;;1.10;;
4726;SDS011;2377;51.734;8.950;2022-12-29T00:48:12;2.77;;;1.20;;
4726;SDS011;2377;51.734;8.950;2022-12-29T00:50:40;2.60;;;1.40;;
4726;SDS011;2377;51.734;8.950;2022-12-29T00:53:06;1.70;;;1.10;;
4726;SDS011;2377;51.734;8.950;2022-12-29T00:55:36;2.03;;;1.10;;
4726;SDS011;2377;51.734;8.950;2022-12-29T00:58:03;1.93;;;1.07;;
4726;SDS011;2377;51.734;8.950;2022-12-29T01:00:30;1.80;;;1.00;;
4726;SDS011;2377;51.734;8.950;2022-12-29T01:02:57;1.87;;;1.13;;
4726;SDS011;2377;51.734;8.950;2022-12-29T01:05:24;1.60;;;1.00;;
4726;SDS011;2377;51.734;8.950;2022-12-29T01:07:53;1.90;;;1.10;;
4726;SDS011;2377;51.734;8.950;2022-12-29T01:10:20;2.60;;;1.30;;
4726;SDS011;2377;51.734;8.950;2022-12-29T01:12:46;2.67;;;1.30;;
4726;SDS011;2377;51.734;8.950;2022-12-29T01:15:14;2.10;;;1.20;;
4726;SDS011;2377;51.734;8.950;2022-12-29T01:17:41;3.07;;;1.30;;
4726;SDS011;2377;51.734;8.950;2022-12-29T01:20:09;3.70;;;1.73;;
4726;SDS011;2377;51.734;8.950;2022-12-29T01:22:37;1.97;;;1.30;;
4726;SDS011;2377;51.734;8.950;2022-12-29T01:25:07;4.03;;;1.20;;
4726;SDS011;2377;51.734;8.950;2022-12-29T01:27:34;3.53;;;1.40;;
4726;SDS011;2377;51.734;8.950;2022-12-29T01:30:01;2.13;;;1.20;;
4726;SDS011;2377;51.734;8.950;2022-12-29T01:32:30;2.80;;;1.27;;
4726;SDS011;2377;51.734;8.950;2022-12-29T01:34:57;3.37;;;1.20;;
4726;SDS011;2377;51.734;8.950;2022-12-29T01:37:24;2.10;;;1.13;;
4726;SDS011;2377;51.734;8.950;2022-12-29T01:39:51;1.93;;;1.10;;
4726;SDS011;2377;51.734;8.950;2022-12-29T01:42:22;2.60;;;1.67;;
4726;SDS011;2377;51.734;8.950;2022-12-29T01:44:52;4.13;;;1.97;;
4726;SDS011;2377;51.734;8.950;2022-12-29T01:47:25;4.13;;;1.93;;
4726;SDS011;2377;51.734;8.950;2022-12-29T01:50:00;3.23;;;1.80;;
4726;SDS011;2377;51.734;8.950;2022-12-29T01:52:35;3.80;;;1.80;;
4726;SDS011;2377;51.734;8.950;2022-12-29T01:55:09;3.80;;;1.93;;
4726;SDS011;2377;51.734;8.950;2022-12-29T01:57:40;3.67;;;1.90;;
4726;SDS011;2377;51.734;8.950;2022-12-29T02:00:14;3.07;;;1.83;;
4726;SDS011;2377;51.734;8.950;2022-12-29T02:02:43;3.30;;;1.70;;
4726;SDS011;2377;51.734;8.950;2022-12-29T02:05:19;2.63;;;1.77;;
4726;SDS011;2377;51.734;8.950;2022-12-29T02:07:54;3.60;;;2.10;;
4726;SDS011;2377;51.734;8.950;2022-12-29T02:10:21;5.50;;;2.17;;
4726;SDS011;2377;51.734;8.950;2022-12-29T02:12:55;3.27;;;1.80;;
4726;SDS011;2377;51.734;8.950;2022-12-29T02:15:28;2.50;;;1.50;;
4726;SDS011;2377;51.734;8.950;2022-12-29T02:18:10;4.20;;;2.07;;
4726;SDS011;2377;51.734;8.950;2022-12-29T02:21:16;6.20;;;1.90;;
4726;SDS011;2377;51.734;8.950;2022-12-29T02:24:37;4.00;;;2.27;;
4726;SDS011;2377;51.734;8.950;2022-12-29T02:27:46;3.70;;;1.90;;
4726;SDS011;2377;51.734;8.950;2022-12-29T02:33:36;2.80;;;1.47;;
4726;SDS011;2377;51.734;8.950;2022-12-29T02:36:21;1.60;;;0.90;;
4726;SDS011;2377;51.734;8.950;2022-12-29T02:39:00;1.70;;;0.90;;
4726;SDS011;2377;51.734;8.950;2022-12-29T02:41:40;2.27;;;1.10;;
4726;SDS011;2377;51.734;8.950;2022-12-29T02:44:22;2.20;;;1.10;;
4726;SDS011;2377;51.734;8.950;2022-12-29T02:47:00;1.63;;;1.00;;
4726;SDS011;2377;51.734;8.950;2022-12-29T02:49:40;1.53;;;0.90;;
4726;SDS011;2377;51.734;8.950;2022-12-29T02:52:17;1.40;;;0.80;;
4726;SDS011;2377;51.734;8.950;2022-12-29T02:54:53;1.50;;;0.90;;
4726;SDS011;2377;51.734;8.950;2022-12-29T02:57:28;1.70;;;0.90;;
4726;SDS011;2377;51.734;8.950;2022-12-29T03:00:00;4.27;;;1.20;;
4726;SDS011;2377;51.734;8.950;2022-12-29T03:02:38;2.90;;;0.90;;
4726;SDS011;2377;51.734;8.950;2022-12-29T03:05:56;3.57;;;0.80;;
4726;SDS011;2377;51.734;8.950;2022-12-29T03:08:44;2.00;;;0.90;;
4726;SDS011;2377;51.734;8.950;2022-12-29T03:11:21;2.00;;;1.00;;
4726;SDS011;2377;51.734;8.950;2022-12-29T03:14:21;1.60;;;0.80;;
4726;SDS011;2377;51.734;8.950;2022-12-29T03:17:14;1.77;;;0.90;;
4726;SDS011;2377;51.734;8.950;2022-12-29T03:19:54;1.87;;;1.00;;
4726;SDS011;2377;51.734;8.950;2022-12-29T03:22:32;2.90;;;0.80;;
4726;SDS011;2377;51.734;8.950;2022-12-29T03:25:08;1.83;;;0.80;;
4726;SDS011;2377;51.734;8.950;2022-12-29T03:27:41;2.43;;;1.20;;
4726;SDS011;2377;51.734;8.950;2022-12-29T03:30:13;2.20;;;1.00;;
4726;SDS011;2377;51.734;8.950;2022-12-29T03:32:42;1.70;;;0.80;;
4726;SDS011;2377;51.734;8.950;2022-12-29T03:35:15;1.90;;;1.00;;
4726;SDS011;2377;51.734;8.950;2022-12-29T03:37:48;1.60;;;0.90;;
4726;SDS011;2377;51.734;8.950;2022-12-29T03:40:24;3.23;;;1.20;;
4726;SDS011;2377;51.734;8.950;2022-12-29T03:42:55;2.47;;;1.00;;
4726;SDS011;2377;51.734;8.950;2022-12-29T03:45:24;2.43;;;1.03;;
4726;SDS011;2377;51.734;8.950;2022-12-29T03:47:51;1.93;;;0.97;;
4726;SDS011;2377;51.734;8.950;2022-12-29T03:50:20;3.60;;;0.90;;
4726;SDS011;2377;51.734;8.950;2022-12-29T03:52:47;2.00;;;0.90;;
4726;SDS011;2377;51.734;8.950;2022-12-29T03:55:15;3.00;;;1.00;;
4726;SDS011;2377;51.734;8.950;2022-12-29T03:57:42;1.80;;;1.00;;
4726;SDS011;2377;51.734;8.950;2022-12-29T04:00:09;1.80;;;0.90;;
4726;SDS011;2377;51.734;8.950;2022-12-29T04:02:38;2.87;;;0.93;;
4726;SDS011;2377;51.734;8.950;2022-12-29T04:05:06;4.53;;;1.07;;
4726;SDS011;2377;51.734;8.950;2022-12-29T04:07:35;2.83;;;0.93;;
4726;SDS011;2377;51.734;8.950;2022-12-29T04:10:02;2.23;;;0.90;;
4726;SDS011;2377;51.734;8.950;2022-12-29T04:12:29;3.30;;;1.00;;
4726;SDS011;2377;51.734;8.950;2022-12-29T04:14:56;4.07;;;1.00;;
4726;SDS011;2377;51.734;8.950;2022-12-29T04:17:23;2.33;;;1.10;;
4726;SDS011;2377;51.734;8.950;2022-12-29T04:19:50;1.83;;;1.00;;
4726;SDS011;2377;51.734;8.950;2022-12-29T04:22:39;1.73;;;0.90;;
4726;SDS011;2377;51.734;8.950;2022-12-29T04:25:09;3.33;;;1.10;;
4726;SDS011;2377;51.734;8.950;2022-12-29T04:27:36;2.60;;;1.13;;
4726;SDS011;2377;51.734;8.950;2022-12-29T04:30:04;1.90;;;0.90;;
4726;SDS011;2377;51.734;8.950;2022-12-29T04:32:32;2.77;;;1.43;;
4726;SDS011;2377;51.734;8.950;2022-12-29T04:34:59;2.43;;;1.00;;
4726;SDS011;2377;51.734;8.950;2022-12-29T04:37:26;4.10;;;1.20;;
4726;SDS011;2377;51.734;8.950;2022-12-29T04:39:54;2.07;;;0.97;;
4726;SDS011;2377;51.734;8.950;2022-12-29T04:42:22;2.67;;;1.00;;
4726;SDS011;2377;51.734;8.950;2022-12-29T04:44:49;9.30;;;1.00;;
4726;SDS011;2377;51.734;8.950;2022-12-29T04:47:16;1.80;;;0.87;;
4726;SDS011;2377;51.734;8.950;2022-12-29T04:49:43;2.33;;;1.00;;
4726;SDS011;2377;51.734;8.950;2022-12-29T04:52:10;1.87;;;1.00;;
4726;SDS011;2377;51.734;8.950;2022-12-29T04:54:37;2.87;;;1.00;;
4726;SDS011;2377;51.734;8.950;2022-12-29T04:57:06;3.60;;;1.00;;
4726;SDS011;2377;51.734;8.950;2022-12-29T04:59:33;1.80;;;1.00;;
4726;SDS011;2377;51.734;8.950;2022-12-29T05:02:00;4.43;;;0.90;;
4726;SDS011;2377;51.734;8.950;2022-12-29T05:04:27;1.90;;;0.90;;
4726;SDS011;2377;51.734;8.950;2022-12-29T05:06:54;1.97;;;0.90;;
4726;SDS011;2377;51.734;8.950;2022-12-29T05:09:21;2.77;;;0.90;;
4726;SDS011;2377;51.734;8.950;2022-12-29T05:11:49;5.50;;;1.10;;
4726;SDS011;2377;51.734;8.950;2022-12-29T05:14:17;2.00;;;0.80;;
4726;SDS011;2377;51.734;8.950;2022-12-29T05:16:44;4.57;;;1.07;;
4726;SDS011;2377;51.734;8.950;2022-12-29T05:19:11;1.93;;;0.90;;
4726;SDS011;2377;51.734;8.950;2022-12-29T05:21:39;2.30;;;1.00;;
4726;SDS011;2377;51.734;8.950;2022-12-29T05:24:06;1.67;;;0.90;;
4726;SDS011;2377;51.734;8.950;2022-12-29T05:26:33;3.07;;;0.83;;
4726;SDS011;2377;51.734;8.950;2022-12-29T05:29:00;1.67;;;0.90;;
4726;SDS011;2377;51.734;8.950;2022-12-29T05:31:29;1.57;;;0.80;;
4726;SDS011;2377;51.734;8.950;2022-12-29T05:33:56;1.70;;;0.90;;
4726;SDS011;2377;51.734;8.950;2022-12-29T05:36:23;1.97;;;0.87;;
4726;SDS011;2377;51.734;8.950;2022-12-29T05:38:50;2.23;;;0.90;;
4726;SDS011;2377;51.734;8.950;2022-12-29T05:41:17;1.87;;;0.93;;
4726;SDS011;2377;51.734;8.950;2022-12-29T05:43:44;1.87;;;0.80;;
4726;SDS011;2377;51.734;8.950;2022-12-29T05:46:11;3.20;;;1.07;;
4726;SDS011;2377;51.734;8.950;2022-12-29T05:48:40;1.70;;;1.00;;
4726;SDS011;2377;51.734;8.950;2022-12-29T05:51:07;2.07;;;1.13;;
4726;SDS011;2377;51.734;8.950;2022-12-29T05:53:34;2.20;;;1.00;;
4726;SDS011;2377;51.734;8.950;2022-12-29T05:56:01;4.03;;;1.30;;
4726;SDS011;2377;51.734;8.950;2022-12-29T05:58:28;3.63;;;1.40;;
4726;SDS011;2377;51.734;8.950;2022-12-29T06:00:55;4.77;;;1.10;;
4726;SDS011;2377;51.734;8.950;2022-12-29T06:03:22;1.73;;;0.90;;
4726;SDS011;2377;51.734;8.950;2022-12-29T06:05:50;1.73;;;0.93;;
4726;SDS011;2377;51.734;8.950;2022-12-29T06:08:18;1.70;;;0.90;;
4726;SDS011;2377;51.734;8.950;2022-12-29T06:10:45;1.73;;;0.90;;
4726;SDS011;2377;51.734;8.950;2022-12-29T06:13:12;1.40;;;0.70;;
4726;SDS011;2377;51.734;8.950;2022-12-29T06:15:39;2.67;;;1.00;;
4726;SDS011;2377;51.734;8.950;2022-12-29T06:18:06;2.10;;;0.90;;
4726;SDS011;2377;51.734;8.950;2022-12-29T06:20:33;2.33;;;0.80;;
4726;SDS011;2377;51.734;8.950;2022-12-29T06:23:02;1.93;;;1.00;;
4726;SDS011;2377;51.734;8.950;2022-12-29T06:25:30;1.97;;;1.00;;
4726;SDS011;2377;51.734;8.950;2022-12-29T06:27:58;2.00;;;0.90;;
4726;SDS011;2377;51.734;8.950;2022-12-29T06:30:25;1.80;;;0.97;;
4726;SDS011;2377;51.734;8.950;2022-12-29T06:32:52;2.63;;;0.90;;
4726;SDS011;2377;51.734;8.950;2022-12-29T06:35:20;2.33;;;0.90;;
4726;SDS011;2377;51.734;8.950;2022-12-29T06:37:47;1.60;;;0.90;;
4726;SDS011;2377;51.734;8.950;2022-12-29T06:40:16;4.27;;;1.00;;
4726;SDS011;2377;51.734;8.950;2022-12-29T06:42:43;3.17;;;0.90;;
4726;SDS011;2377;51.734;8.950;2022-12-29T06:45:10;1.73;;;1.00;;
4726;SDS011;2377;51.734;8.950;2022-12-29T06:47:37;2.53;;;0.90;;
4726;SDS011;2377;51.734;8.950;2022-12-29T06:50:05;1.70;;;0.90;;
4726;SDS011;2377;51.734;8.950;2022-12-29T06:52:33;2.70;;;1.13;;
4726;SDS011;2377;51.734;8.950;2022-12-29T06:55:00;1.90;;;1.00;;
4726;SDS011;2377;51.734;8.950;2022-12-29T06:57:29;2.33;;;0.80;;
4726;SDS011;2377;51.734;8.950;2022-12-29T06:59:56;2.43;;;0.90;;
4726;SDS011;2377;51.734;8.950;2022-12-29T07:02:23;2.93;;;1.00;;
4726;SDS011;2377;51.734;8.950;2022-12-29T07:04:51;1.90;;;0.90;;
4726;SDS011;2377;51.734;8.950;2022-12-29T07:07:18;4.23;;;1.00;;
4726;SDS011;2377;51.734;8.950;2022-12-29T07:09:45;2.33;;;0.90;;
4726;SDS011;2377;51.734;8.950;2022-12-29T07:12:13;2.00;;;0.90;;
4726;SDS011;2377;51.734;8.950;2022-12-29T07:14:41;2.60;;;1.07;;
4726;SDS011;2377;51.734;8.950;2022-12-29T07:17:09;3.20;;;1.07;;
4726;SDS011;2377;51.734;8.950;2022-12-29T07:19:36;2.47;;;1.00;;
4726;SDS011;2377;51.734;8.950;2022-12-29T07:22:03;1.80;;;0.90;;
4726;SDS011;2377;51.734;8.950;2022-12-29T07:24:30;5.30;;;1.20;;
4726;SDS011;2377;51.734;8.950;2022-12-29T07:26:57;3.23;;;1.00;;
4726;SDS011;2377;51.734;8.950;2022-12-29T07:29:24;2.97;;;1.30;;
4726;SDS011;2377;51.734;8.950;2022-12-29T07:31:52;2.73;;;1.00;;
4726;SDS011;2377;51.734;8.950;2022-12-29T07:34:19;3.20;;;0.97;;
4726;SDS011;2377;51.734;8.950;2022-12-29T07:36:47;1.60;;;0.70;;
4726;SDS011;2377;51.734;8.950;2022-12-29T07:39:14;2.53;;;0.90;;
4726;SDS011;2377;51.734;8.950;2022-12-29T07:41:41;2.97;;;1.57;;
4726;SDS011;2377;51.734;8.950;2022-12-29T07:44:08;2.23;;;1.03;;
4726;SDS011;2377;51.734;8.950;2022-12-29T07:46:35;3.50;;;1.30;;
4726;SDS011;2377;51.734;8.950;2022-12-29T07:49:04;2.27;;;1.03;;
4726;SDS011;2377;51.734;8.950;2022-12-29T07:51:31;2.43;;;1.00;;
4726;SDS011;2377;51.734;8.950;2022-12-29T07:53:58;1.80;;;0.97;;
4726;SDS011;2377;51.734;8.950;2022-12-29T07:56:26;2.20;;;0.90;;
4726;SDS011;2377;51.734;8.950;2022-12-29T07:58:53;2.13;;;1.00;;
4726;SDS011;2377;51.734;8.950;2022-12-29T08:01:20;2.70;;;0.90;;
4726;SDS011;2377;51.734;8.950;2022-12-29T08:03:48;2.87;;;1.10;;
4726;SDS011;2377;51.734;8.950;2022-12-29T08:06:16;1.47;;;0.83;;
4726;SDS011;2377;51.734;8.950;2022-12-29T08:08:45;2.20;;;1.00;;
4726;SDS011;2377;51.734;8.950;2022-12-29T08:11:12;2.27;;;1.00;;
4726;SDS011;2377;51.734;8.950;2022-12-29T08:13:39;3.07;;;1.17;;
4726;SDS011;2377;51.734;8.950;2022-12-29T08:16:06;2.00;;;0.97;;
4726;SDS011;2377;51.734;8.950;2022-12-29T08:18:33;2.57;;;0.90;;
4726;SDS011;2377;51.734;8.950;2022-12-29T08:21:01;1.70;;;0.90;;
4726;SDS011;2377;51.734;8.950;2022-12-29T08:23:30;2.67;;;0.90;;
4726;SDS011;2377;51.734;8.950;2022-12-29T08:25:58;4.03;;;1.07;;
4726;SDS011;2377;51.734;8.950;2022-12-29T08:28:25;2.00;;;0.90;;
4726;SDS011;2377;51.734;8.950;2022-12-29T08:30:53;4.77;;;0.90;;
4726;SDS011;2377;51.734;8.950;2022-12-29T08:33:23;2.53;;;1.10;;
4726;SDS011;2377;51.734;8.950;2022-12-29T08:35:50;3.73;;;1.10;;
4726;SDS011;2377;51.734;8.950;2022-12-29T08:38:17;2.80;;;1.10;;
4726;SDS011;2377;51.734;8.950;2022-12-29T08:40:46;2.83;;;1.30;;
4726;SDS011;2377;51.734;8.950;2022-12-29T08:43:13;2.30;;;1.10;;
4726;SDS011;2377;51.734;8.950;2022-12-29T08:45:40;2.60;;;1.00;;
4726;SDS011;2377;51.734;8.950;2022-12-29T08:48:07;2.33;;;1.20;;
4726;SDS011;2377;51.734;8.950;2022-12-29T08:50:34;5.87;;;1.00;;
4726;SDS011;2377;51.734;8.950;2022-12-29T08:53:01;2.20;;;1.00;;
4726;SDS011;2377;51.734;8.950;2022-12-29T08:55:29;2.70;;;0.90;;
4726;SDS011;2377;51.734;8.950;2022-12-29T08:57:57;3.70;;;1.20;;
4726;SDS011;2377;51.734;8.950;2022-12-29T09:00:24;3.03;;;1.13;;
4726;SDS011;2377;51.734;8.950;2022-12-29T09:02:51;2.90;;;1.03;;
4726;SDS011;2377;51.734;8.950;2022-12-29T09:05:18;2.93;;;1.20;;
4726;SDS011;2377;51.734;8.950;2022-12-29T09:07:46;3.00;;;1.00;;
4726;SDS011;2377;51.734;8.950;2022-12-29T09:10:13;2.13;;;1.00;;
4726;SDS011;2377;51.734;8.950;2022-12-29T09:12:40;1.53;;;0.83;;
4726;SDS011;2377;51.734;8.950;2022-12-29T09:15:09;2.43;;;0.90;;
4726;SDS011;2377;51.734;8.950;2022-12-29T09:17:37;1.80;;;0.80;;
4726;SDS011;2377;51.734;8.950;2022-12-29T09:20:07;2.73;;;0.90;;
4726;SDS011;2377;51.734;8.950;2022-12-29T09:22:35;2.53;;;1.13;;
4726;SDS011;2377;51.734;8.950;2022-12-29T09:25:03;3.10;;;1.10;;
4726;SDS011;2377;51.734;8.950;2022-12-29T09:27:31;2.33;;;0.90;;
4726;SDS011;2377;51.734;8.950;2022-12-29T09:29:58;1.97;;;0.90;;
4726;SDS011;2377;51.734;8.950;2022-12-29T09:32:26;1.80;;;0.90;;
4726;SDS011;2377;51.734;8.950;2022-12-29T09:34:53;1.93;;;0.83;;
4726;SDS011;2377;51.734;8.950;2022-12-29T09:37:21;2.07;;;1.10;;
4726;SDS011;2377;51.734;8.950;2022-12-29T09:39:48;3.00;;;1.20;;
4726;SDS011;2377;51.734;8.950;2022-12-29T09:42:16;2.17;;;0.97;;
4726;SDS011;2377;51.734;8.950;2022-12-29T09:44:55;1.70;;;0.97;;
4726;SDS011;2377;51.734;8.950;2022-12-29T09:47:39;1.70;;;0.93;;
4726;SDS011;2377;51.734;8.950;2022-12-29T09:50:11;1.63;;;0.90;;
4726;SDS011;2377;51.734;8.950;2022-12-29T09:52:50;2.97;;;1.23;;
4726;SDS011;2377;51.734;8.950;2022-12-29T09:55:25;2.30;;;1.20;;
4726;SDS011;2377;51.734;8.950;2022-12-29T09:58:05;3.20;;;1.47;;
4726;SDS011;2377;51.734;8.950;2022-12-29T10:00:53;4.87;;;1.57;;
4726;SDS011;2377;51.734;8.950;2022-12-29T10:03:32;2.93;;;1.07;;
4726;SDS011;2377;51.734;8.950;2022-12-29T10:06:13;3.73;;;1.23;;
4726;SDS011;2377;51.734;8.950;2022-12-29T10:08:49;3.20;;;1.43;;
4726;SDS011;2377;51.734;8.950;2022-12-29T10:11:31;3.63;;;1.30;;
4726;SDS011;2377;51.734;8.950;2022-12-29T10:14:24;4.17;;;1.50;;
4726;SDS011;2377;51.734;8.950;2022-12-29T10:17:13;2.53;;;1.40;;
4726;SDS011;2377;51.734;8.950;2022-12-29T10:19:59;5.40;;;1.43;;
4726;SDS011;2377;51.734;8.950;2022-12-29T10:22:56;2.20;;;1.27;;
4726;SDS011;2377;51.734;8.950;2022-12-29T10:26:02;3.50;;;1.40;;
4726;SDS011;2377;51.734;8.950;2022-12-29T10:28:34;2.57;;;1.10;;
4726;SDS011;2377;51.734;8.950;2022-12-29T10:31:07;6.50;;;1.87;;
4726;SDS011;2377;51.734;8.950;2022-12-29T10:33:41;7.70;;;3.30;;
4726;SDS011;2377;51.734;8.950;2022-12-29T10:36:15;5.60;;;1.70;;
4726;SDS011;2377;51.734;8.950;2022-12-29T10:38:48;3.47;;;1.50;;
4726;SDS011;2377;51.734;8.950;2022-12-29T10:41:32;3.50;;;1.27;;
4726;SDS011;2377;51.734;8.950;2022-12-29T10:44:08;3.97;;;1.30;;
4726;SDS011;2377;51.734;8.950;2022-12-29T10:46:42;3.50;;;1.30;;
4726;SDS011;2377;51.734;8.950;2022-12-29T10:49:18;3.50;;;1.20;;
4726;SDS011;2377;51.734;8.950;2022-12-29T10:51:47;4.60;;;1.40;;
4726;SDS011;2377;51.734;8.950;2022-12-29T10:54:18;5.57;;;1.67;;
4726;SDS011;2377;51.734;8.950;2022-12-29T10:56:53;2.30;;;1.40;;
4726;SDS011;2377;51.734;8.950;2022-12-29T10:59:28;2.87;;;1.40;;
4726;SDS011;2377;51.734;8.950;2022-12-29T11:02:00;4.00;;;1.40;;
4726;SDS011;2377;51.734;8.950;2022-12-29T11:05:10;3.00;;;1.30;;
4726;SDS011;2377;51.734;8.950;2022-12-29T11:07:50;6.87;;;1.50;;
4726;SDS011;2377;51.734;8.950;2022-12-29T11:10:29;8.43;;;2.30;;
4726;SDS011;2377;51.734;8.950;2022-12-29T11:13:04;5.20;;;1.80;;
4726;SDS011;2377;51.734;8.950;2022-12-29T11:15:40;5.37;;;1.50;;
4726;SDS011;2377;51.734;8.950;2022-12-29T11:18:19;3.60;;;1.27;;
4726;SDS011;2377;51.734;8.950;2022-12-29T11:20:52;3.50;;;1.37;;
4726;SDS011;2377;51.734;8.950;2022-12-29T11:23:35;3.10;;;1.30;;
4726;SDS011;2377;51.734;8.950;2022-12-29T11:26:12;6.13;;;1.83;;
4726;SDS011;2377;51.734;8.950;2022-12-29T11:28:44;6.00;;;1.50;;
4726;SDS011;2377;51.734;8.950;2022-12-29T11:31:17;5.03;;;1.73;;
4726;SDS011;2377;51.734;8.950;2022-12-29T11:33:48;4.40;;;1.47;;
4726;SDS011;2377;51.734;8.950;2022-12-29T11:36:16;3.60;;;1.80;;
4726;SDS011;2377;51.734;8.950;2022-12-29T11:38:50;5.80;;;1.70;;
4726;SDS011;2377;51.734;8.950;2022-12-29T11:41:21;5.13;;;1.60;;
4726;SDS011;2377;51.734;8.950;2022-12-29T11:43:52;3.87;;;1.73;;
4726;SDS011;2377;51.734;8.950;2022-12-29T11:46:24;8.50;;;1.50;;
4726;SDS011;2377;51.734;8.950;2022-12-29T11:48:56;3.50;;;1.40;;
4726;SDS011;2377;51.734;8.950;2022-12-29T11:51:26;4.10;;;1.50;;
4726;SDS011;2377;51.734;8.950;2022-12-29T11:53:59;2.33;;;1.13;;
4726;SDS011;2377;51.734;8.950;2022-12-29T11:56:33;6.30;;;1.83;;
4726;SDS011;2377;51.734;8.950;2022-12-29T12:02:17;4.40;;;1.47;;
4726;SDS011;2377;51.734;8.950;2022-12-29T12:05:07;3.60;;;1.57;;
4726;SDS011;2377;51.734;8.950;2022-12-29T12:07:52;5.97;;;2.13;;
4726;SDS011;2377;51.734;8.950;2022-12-29T12:10:28;5.77;;;1.50;;
4726;SDS011;2377;51.734;8.950;2022-12-29T12:13:05;3.20;;;1.70;;
4726;SDS011;2377;51.734;8.950;2022-12-29T12:15:47;6.67;;;1.60;;
4726;SDS011;2377;51.734;8.950;2022-12-29T12:18:24;6.23;;;1.83;;
4726;SDS011;2377;51.734;8.950;2022-12-29T12:21:06;6.57;;;1.70;;
4726;SDS011;2377;51.734;8.950;2022-12-29T12:23:45;6.37;;;1.80;;
4726;SDS011;2377;51.734;8.950;2022-12-29T12:26:47;5.07;;;1.60;;
4726;SDS011;2377;51.734;8.950;2022-12-29T12:29:25;4.23;;;1.77;;
4726;SDS011;2377;51.734;8.950;2022-12-29T12:32:03;6.07;;;1.60;;
4726;SDS011;2377;51.734;8.950;2022-12-29T12:34:41;8.67;;;1.90;;
4726;SDS011;2377;51.734;8.950;2022-12-29T12:37:14;5.80;;;1.60;;
4726;SDS011;2377;51.734;8.950;2022-12-29T12:40:34;3.80;;;1.70;;
4726;SDS011;2377;51.734;8.950;2022-12-29T12:43:34;5.37;;;1.67;;
4726;SDS011;2377;51.734;8.950;2022-12-29T12:46:15;5.53;;;1.70;;
4726;SDS011;2377;51.734;8.950;2022-12-29T12:49:29;4.03;;;1.40;;
4726;SDS011;2377;51.734;8.950;2022-12-29T12:52:28;7.73;;;2.07;;
4726;SDS011;2377;51.734;8.950;2022-12-29T12:55:13;8.17;;;1.80;;
4726;SDS011;2377;51.734;8.950;2022-12-29T12:58:09;5.43;;;1.77;;
4726;SDS011;2377;51.734;8.950;2022-12-29T13:00:50;4.27;;;1.57;;
4726;SDS011;2377;51.734;8.950;2022-12-29T13:03:35;3.90;;;1.40;;
4726;SDS011;2377;51.734;8.950;2022-12-29T13:06:26;12.53;;;2.20;;
4726;SDS011;2377;51.734;8.950;2022-12-29T13:09:32;9.03;;;1.90;;
4726;SDS011;2377;51.734;8.950;2022-12-29T13:12:20;8.67;;;2.00;;
4726;SDS011;2377;51.734;8.950;2022-12-29T13:15:03;4.90;;;1.47;;
4726;SDS011;2377;51.734;8.950;2022-12-29T13:17:49;10.33;;;1.93;;
4726;SDS011;2377;51.734;8.950;2022-12-29T13:20:28;7.13;;;1.70;;
4726;SDS011;2377;51.734;8.950;2022-12-29T13:23:05;5.53;;;1.70;;
4726;SDS011;2377;51.734;8.950;2022-12-29T13:25:45;4.90;;;1.90;;
4726;SDS011;2377;51.734;8.950;2022-12-29T13:28:22;4.30;;;1.60;;
4726;SDS011;2377;51.734;8.950;2022-12-29T13:31:00;6.40;;;1.80;;
4726;SDS011;2377;51.734;8.950;2022-12-29T13:33:40;7.10;;;3.10;;
4726;SDS011;2377;51.734;8.950;2022-12-29T13:36:20;5.07;;;1.70;;
4726;SDS011;2377;51.734;8.950;2022-12-29T13:38:55;7.17;;;1.90;;
4726;SDS011;2377;51.734;8.950;2022-12-29T13:41:32;5.00;;;1.70;;
4726;SDS011;2377;51.734;8.950;2022-12-29T13:44:05;5.73;;;1.90;;
4726;SDS011;2377;51.734;8.950;2022-12-29T13:46:40;5.17;;;1.93;;
4726;SDS011;2377;51.734;8.950;2022-12-29T13:49:13;7.30;;;2.13;;
4726;SDS011;2377;51.734;8.950;2022-12-29T13:51:47;4.23;;;1.67;;
4726;SDS011;2377;51.734;8.950;2022-12-29T13:54:21;7.00;;;2.20;;
4726;SDS011;2377;51.734;8.950;2022-12-29T13:57:03;6.63;;;1.93;;
4726;SDS011;2377;51.734;8.950;2022-12-29T13:59:42;5.50;;;1.80;;
4726;SDS011;2377;51.734;8.950;2022-12-29T14:02:19;9.50;;;2.53;;
4726;SDS011;2377;51.734;8.950;2022-12-29T14:05:04;6.70;;;2.10;;
4726;SDS011;2377;51.734;8.950;2022-12-29T14:07:57;4.93;;;1.87;;
4726;SDS011;2377;51.734;8.950;2022-12-29T14:10:27;5.53;;;1.83;;
4726;SDS011;2377;51.734;8.950;2022-12-29T14:13:02;5.70;;;1.80;;
4726;SDS011;2377;51.734;8.950;2022-12-29T14:15:32;7.97;;;2.00;;
4726;SDS011;2377;51.734;8.950;2022-12-29T14:18:13;7.37;;;2.00;;
4726;SDS011;2377;51.734;8.950;2022-12-29T14:20:49;6.37;;;1.90;;
4726;SDS011;2377;51.734;8.950;2022-12-29T14:23:28;8.80;;;2.17;;
4726;SDS011;2377;51.734;8.950;2022-12-29T14:26:15;6.80;;;1.60;;
4726;SDS011;2377;51.734;8.950;2022-12-29T14:29:00;8.00;;;2.10;;
4726;SDS011;2377;51.734;8.950;2022-12-29T14:31:57;13.03;;;2.37;;
4726;SDS011;2377;51.734;8.950;2022-12-29T14:34:30;6.90;;;2.30;;
4726;SDS011;2377;51.734;8.950;2022-12-29T14:37:17;5.73;;;2.03;;
4726;SDS011;2377;51.734;8.950;2022-12-29T14:40:02;8.40;;;2.60;;
4726;SDS011;2377;51.734;8.950;2022-12-29T14:42:42;4.40;;;2.10;;
4726;SDS011;2377;51.734;8.950;2022-12-29T14:45:23;5.37;;;2.47;;
4726;SDS011;2377;51.734;8.950;2022-12-29T14:47:54;7.83;;;2.10;;
4726;SDS011;2377;51.734;8.950;2022-12-29T14:50:23;9.50;;;2.50;;
4726;SDS011;2377;51.734;8.950;2022-12-29T14:53:40;5.50;;;2.00;;
4726;SDS011;2377;51.734;8.950;2022-12-29T14:56:10;5.60;;;2.00;;
4726;SDS011;2377;51.734;8.950;2022-12-29T14:58:42;4.90;;;2.07;;
4726;SDS011;2377;51.734;8.950;2022-12-29T15:01:20;7.30;;;2.13;;
4726;SDS011;2377;51.734;8.950;2022-12-29T15:03:54;6.40;;;2.00;;
4726;SDS011;2377;51.734;8.950;2022-12-29T15:06:29;3.77;;;1.77;;
4726;SDS011;2377;51.734;8.950;2022-12-29T15:09:03;6.60;;;2.30;;
4726;SDS011;2377;51.734;8.950;2022-12-29T15:11:44;7.57;;;2.33;;
4726;SDS011;2377;51.734;8.950;2022-12-29T15:14:31;5.40;;;2.50;;
4726;SDS011;2377;51.734;8.950;2022-12-29T15:17:09;9.60;;;2.07;;
4726;SDS011;2377;51.734;8.950;2022-12-29T15:19:49;7.00;;;2.17;;
4726;SDS011;2377;51.734;8.950;2022-12-29T15:22:16;8.30;;;2.10;;
4726;SDS011;2377;51.734;8.950;2022-12-29T15:24:45;5.47;;;2.17;;
4726;SDS011;2377;51.734;8.950;2022-12-29T15:27:14;9.03;;;2.20;;
4726;SDS011;2377;51.734;8.950;2022-12-29T15:29:45;5.63;;;1.80;;
4726;SDS011;2377;51.734;8.950;2022-12-29T15:32:17;4.47;;;2.77;;
4726;SDS011;2377;51.734;8.950;2022-12-29T15:34:49;6.37;;;2.00;;
4726;SDS011;2377;51.734;8.950;2022-12-29T15:37:18;7.33;;;2.23;;
4726;SDS011;2377;51.734;8.950;2022-12-29T15:39:50;8.17;;;2.67;;
4726;SDS011;2377;51.734;8.950;2022-12-29T15:42:23;8.60;;;2.10;;
4726;SDS011;2377;51.734;8.950;2022-12-29T15:45:23;7.63;;;1.77;;
4726;SDS011;2377;51.734;8.950;2022-12-29T15:47:58;8.13;;;2.00;;
4726;SDS011;2377;51.734;8.950;2022-12-29T15:50:27;5.07;;;1.90;;
4726;SDS011;2377;51.734;8.950;2022-12-29T15:52:57;5.73;;;1.57;;
4726;SDS011;2377;51.734;8.950;2022-12-29T15:55:28;9.03;;;3.20;;
4726;SDS011;2377;51.734;8.950;2022-12-29T15:58:00;6.20;;;2.10;;
4726;SDS011;2377;51.734;8.950;2022-12-29T16:00:31;8.13;;;1.90;;
4726;SDS011;2377;51.734;8.950;2022-12-29T16:03:01;6.73;;;1.90;;